sensor_id;sensor_type;location;lat;lon;timestamp;P1;durP1;ratioP1;P2;durP2;ratioP2
34035;SDS011;63481;52.588;22.472;2022-12-18T00:00:40;54.40;;;23.20;;
34035;SDS011;63481;52.588;22.472;2022-12-18T00:01:34;60.70;;;25.05;;
34035;SDS011;63481;52.588;22.472;2022-12-18T00:02:27;59.40;;;22.65;;
34035;SDS011;63481;52.588;22.472;2022-12-18T00:03:18;62.85;;;25.00;;
34035;SDS011;63481;52.588;22.472;2022-12-18T00:04:14;51.33;;;21.87;;
34035;SDS011;63481;52.588;22.472;2022-12-18T00:05:02;59.08;;;24.00;;
34035;SDS011;63481;52.588;22.472;2022-12-18T00:05:53;63.83;;;26.07;;
34035;SDS011;63481;52.588;22.472;2022-12-18T00:06:47;59.25;;;24.80;;
34035;SDS011;63481;52.588;22.472;2022-12-18T00:07:37;61.63;;;25.12;;
34035;SDS011;63481;52.588;22.472;2022-12-18T00:08:28;68.05;;;27.15;;
34035;SDS011;63481;52.588;22.472;2022-12-18T00:09:19;57.75;;;25.00;;
34035;SDS011;63481;52.588;22.472;2022-12-18T00:10:10;54.65;;;23.60;;
34035;SDS011;63481;52.588;22.472;2022-12-18T00:11:57;58.80;;;24.12;;
34035;SDS011;63481;52.588;22.472;2022-12-18T00:12:48;55.50;;;23.40;;
34035;SDS011;63481;52.588;22.472;2022-12-18T00:14:29;61.25;;;23.87;;
34035;SDS011;63481;52.588;22.472;2022-12-18T00:15:19;59.93;;;25.45;;
34035;SDS011;63481;52.588;22.472;2022-12-18T00:16:12;53.20;;;23.90;;
34035;SDS011;63481;52.588;22.472;2022-12-18T00:17:05;60.45;;;24.87;;
34035;SDS011;63481;52.588;22.472;2022-12-18T00:17:55;63.15;;;26.37;;
34035;SDS011;63481;52.588;22.472;2022-12-18T00:18:49;58.10;;;27.75;;
34035;SDS011;63481;52.588;22.472;2022-12-18T00:19:42;63.40;;;27.62;;
34035;SDS011;63481;52.588;22.472;2022-12-18T00:20:36;57.45;;;25.15;;
34035;SDS011;63481;52.588;22.472;2022-12-18T00:21:29;65.70;;;27.07;;
34035;SDS011;63481;52.588;22.472;2022-12-18T00:22:22;57.13;;;25.17;;
34035;SDS011;63481;52.588;22.472;2022-12-18T00:23:12;58.58;;;25.32;;
34035;SDS011;63481;52.588;22.472;2022-12-18T00:24:06;55.83;;;24.00;;
34035;SDS011;63481;52.588;22.472;2022-12-18T00:24:57;60.85;;;26.20;;
34035;SDS011;63481;52.588;22.472;2022-12-18T00:25:47;61.50;;;24.47;;
34035;SDS011;63481;52.588;22.472;2022-12-18T00:26:38;64.97;;;27.02;;
34035;SDS011;63481;52.588;22.472;2022-12-18T00:27:29;55.63;;;23.30;;
34035;SDS011;63481;52.588;22.472;2022-12-18T00:29:11;53.87;;;21.50;;
34035;SDS011;63481;52.588;22.472;2022-12-18T00:30:07;62.88;;;25.80;;
34035;SDS011;63481;52.588;22.472;2022-12-18T00:31:05;55.80;;;25.70;;
34035;SDS011;63481;52.588;22.472;2022-12-18T00:31:58;54.65;;;24.65;;
34035;SDS011;63481;52.588;22.472;2022-12-18T00:33:38;55.63;;;25.95;;
34035;SDS011;63481;52.588;22.472;2022-12-18T00:34:31;57.03;;;23.27;;
34035;SDS011;63481;52.588;22.472;2022-12-18T00:35:21;59.48;;;26.57;;
34035;SDS011;63481;52.588;22.472;2022-12-18T00:36:13;56.65;;;22.75;;
34035;SDS011;63481;52.588;22.472;2022-12-18T00:37:07;52.27;;;23.22;;
34035;SDS011;63481;52.588;22.472;2022-12-18T00:37:57;51.13;;;24.15;;
34035;SDS011;63481;52.588;22.472;2022-12-18T00:38:48;62.33;;;25.43;;
34035;SDS011;63481;52.588;22.472;2022-12-18T00:39:40;63.48;;;24.57;;
34035;SDS011;63481;52.588;22.472;2022-12-18T00:40:31;66.40;;;25.15;;
34035;SDS011;63481;52.588;22.472;2022-12-18T00:41:22;62.60;;;26.05;;
34035;SDS011;63481;52.588;22.472;2022-12-18T00:42:32;57.88;;;24.05;;
34035;SDS011;63481;52.588;22.472;2022-12-18T00:43:41;55.43;;;23.45;;
34035;SDS011;63481;52.588;22.472;2022-12-18T00:44:32;51.70;;;21.90;;
34035;SDS011;63481;52.588;22.472;2022-12-18T00:45:23;58.45;;;25.23;;
34035;SDS011;63481;52.588;22.472;2022-12-18T00:46:16;58.78;;;23.42;;
34035;SDS011;63481;52.588;22.472;2022-12-18T00:47:06;53.15;;;24.05;;
34035;SDS011;63481;52.588;22.472;2022-12-18T00:47:59;56.85;;;24.32;;
34035;SDS011;63481;52.588;22.472;2022-12-18T00:49:39;61.08;;;24.98;;
34035;SDS011;63481;52.588;22.472;2022-12-18T00:50:30;47.73;;;21.35;;
34035;SDS011;63481;52.588;22.472;2022-12-18T00:51:20;55.05;;;22.62;;
34035;SDS011;63481;52.588;22.472;2022-12-18T00:52:12;52.62;;;23.52;;
34035;SDS011;63481;52.588;22.472;2022-12-18T00:53:02;64.87;;;24.20;;
34035;SDS011;63481;52.588;22.472;2022-12-18T00:53:53;53.05;;;22.95;;
34035;SDS011;63481;52.588;22.472;2022-12-18T00:54:43;55.20;;;27.17;;
34035;SDS011;63481;52.588;22.472;2022-12-18T00:55:34;59.65;;;25.85;;
34035;SDS011;63481;52.588;22.472;2022-12-18T00:56:24;67.05;;;29.05;;
34035;SDS011;63481;52.588;22.472;2022-12-18T00:57:15;57.08;;;26.12;;
34035;SDS011;63481;52.588;22.472;2022-12-18T00:58:59;60.05;;;26.33;;
34035;SDS011;63481;52.588;22.472;2022-12-18T00:59:49;66.65;;;25.65;;
34035;SDS011;63481;52.588;22.472;2022-12-18T01:00:41;55.20;;;25.88;;
34035;SDS011;63481;52.588;22.472;2022-12-18T01:01:34;60.23;;;26.60;;
34035;SDS011;63481;52.588;22.472;2022-12-18T01:02:24;63.28;;;25.68;;
34035;SDS011;63481;52.588;22.472;2022-12-18T01:03:15;59.58;;;27.02;;
34035;SDS011;63481;52.588;22.472;2022-12-18T01:04:07;55.17;;;25.80;;
34035;SDS011;63481;52.588;22.472;2022-12-18T01:04:57;68.00;;;29.42;;
34035;SDS011;63481;52.588;22.472;2022-12-18T01:05:48;66.75;;;28.70;;
34035;SDS011;63481;52.588;22.472;2022-12-18T01:06:38;65.22;;;28.25;;
34035;SDS011;63481;52.588;22.472;2022-12-18T01:07:29;62.55;;;28.60;;
34035;SDS011;63481;52.588;22.472;2022-12-18T01:09:59;60.60;;;24.95;;
34035;SDS011;63481;52.588;22.472;2022-12-18T01:10:50;61.98;;;28.38;;
34035;SDS011;63481;52.588;22.472;2022-12-18T01:12:30;59.75;;;24.77;;
34035;SDS011;63481;52.588;22.472;2022-12-18T01:13:21;55.85;;;25.45;;
34035;SDS011;63481;52.588;22.472;2022-12-18T01:14:13;60.23;;;23.07;;
34035;SDS011;63481;52.588;22.472;2022-12-18T01:15:05;61.55;;;24.18;;
34035;SDS011;63481;52.588;22.472;2022-12-18T01:15:56;61.00;;;27.82;;
34035;SDS011;63481;52.588;22.472;2022-12-18T01:16:47;65.17;;;27.05;;
34035;SDS011;63481;52.588;22.472;2022-12-18T01:18:28;55.52;;;23.45;;
34035;SDS011;63481;52.588;22.472;2022-12-18T01:20:10;59.70;;;24.02;;
34035;SDS011;63481;52.588;22.472;2022-12-18T01:21:06;53.58;;;22.90;;
34035;SDS011;63481;52.588;22.472;2022-12-18T01:22:01;58.80;;;26.73;;
34035;SDS011;63481;52.588;22.472;2022-12-18T01:22:52;63.20;;;25.95;;
34035;SDS011;63481;52.588;22.472;2022-12-18T01:23:44;57.23;;;25.82;;
34035;SDS011;63481;52.588;22.472;2022-12-18T01:24:35;60.88;;;25.77;;
34035;SDS011;63481;52.588;22.472;2022-12-18T01:26:18;55.58;;;22.00;;
34035;SDS011;63481;52.588;22.472;2022-12-18T01:27:08;55.05;;;24.07;;
34035;SDS011;63481;52.588;22.472;2022-12-18T01:27:59;58.13;;;26.42;;
34035;SDS011;63481;52.588;22.472;2022-12-18T01:28:49;54.77;;;23.40;;
34035;SDS011;63481;52.588;22.472;2022-12-18T01:29:40;61.05;;;27.67;;
34035;SDS011;63481;52.588;22.472;2022-12-18T01:30:30;57.43;;;25.62;;
34035;SDS011;63481;52.588;22.472;2022-12-18T01:31:22;54.40;;;24.57;;
34035;SDS011;63481;52.588;22.472;2022-12-18T01:32:14;52.55;;;24.43;;
34035;SDS011;63481;52.588;22.472;2022-12-18T01:33:05;58.45;;;27.07;;
34035;SDS011;63481;52.588;22.472;2022-12-18T01:33:55;58.15;;;27.73;;
34035;SDS011;63481;52.588;22.472;2022-12-18T01:34:47;58.40;;;25.92;;
34035;SDS011;63481;52.588;22.472;2022-12-18T01:35:41;57.85;;;25.52;;
34035;SDS011;63481;52.588;22.472;2022-12-18T01:36:36;57.35;;;27.90;;
34035;SDS011;63481;52.588;22.472;2022-12-18T01:37:28;63.63;;;29.45;;
34035;SDS011;63481;52.588;22.472;2022-12-18T01:38:19;58.78;;;25.00;;
34035;SDS011;63481;52.588;22.472;2022-12-18T01:39:10;69.07;;;27.55;;
34035;SDS011;63481;52.588;22.472;2022-12-18T01:40:04;60.75;;;24.67;;
34035;SDS011;63481;52.588;22.472;2022-12-18T01:40:59;58.73;;;29.45;;
34035;SDS011;63481;52.588;22.472;2022-12-18T01:41:51;66.35;;;27.17;;
34035;SDS011;63481;52.588;22.472;2022-12-18T01:42:53;57.53;;;27.02;;
34035;SDS011;63481;52.588;22.472;2022-12-18T01:43:48;57.33;;;25.55;;
34035;SDS011;63481;52.588;22.472;2022-12-18T01:44:53;65.60;;;25.10;;
34035;SDS011;63481;52.588;22.472;2022-12-18T01:45:45;59.65;;;25.15;;
34035;SDS011;63481;52.588;22.472;2022-12-18T01:46:36;58.02;;;25.32;;
34035;SDS011;63481;52.588;22.472;2022-12-18T01:48:39;62.70;;;23.30;;
34035;SDS011;63481;52.588;22.472;2022-12-18T01:49:30;51.92;;;23.07;;
34035;SDS011;63481;52.588;22.472;2022-12-18T01:51:23;58.28;;;25.27;;
34035;SDS011;63481;52.588;22.472;2022-12-18T01:52:15;52.23;;;22.58;;
34035;SDS011;63481;52.588;22.472;2022-12-18T01:53:13;47.55;;;21.48;;
34035;SDS011;63481;52.588;22.472;2022-12-18T01:54:08;57.40;;;23.52;;
34035;SDS011;63481;52.588;22.472;2022-12-18T01:54:59;55.55;;;23.98;;
34035;SDS011;63481;52.588;22.472;2022-12-18T01:55:53;50.98;;;25.27;;
34035;SDS011;63481;52.588;22.472;2022-12-18T01:56:47;56.85;;;23.40;;
34035;SDS011;63481;52.588;22.472;2022-12-18T01:57:38;52.50;;;25.30;;
34035;SDS011;63481;52.588;22.472;2022-12-18T01:59:32;52.15;;;24.25;;
34035;SDS011;63481;52.588;22.472;2022-12-18T02:00:25;54.80;;;24.12;;
34035;SDS011;63481;52.588;22.472;2022-12-18T02:01:17;56.37;;;27.00;;
34035;SDS011;63481;52.588;22.472;2022-12-18T02:02:09;55.88;;;24.30;;
34035;SDS011;63481;52.588;22.472;2022-12-18T02:03:50;56.08;;;25.88;;
34035;SDS011;63481;52.588;22.472;2022-12-18T02:04:41;57.43;;;30.85;;
34035;SDS011;63481;52.588;22.472;2022-12-18T02:06:36;62.98;;;24.43;;
34035;SDS011;63481;52.588;22.472;2022-12-18T02:09:54;54.85;;;22.80;;
34035;SDS011;63481;52.588;22.472;2022-12-18T02:14:18;58.45;;;25.00;;
34035;SDS011;63481;52.588;22.472;2022-12-18T02:15:15;55.20;;;25.12;;
34035;SDS011;63481;52.588;22.472;2022-12-18T02:16:17;54.08;;;24.32;;
34035;SDS011;63481;52.588;22.472;2022-12-18T02:17:23;53.05;;;24.10;;
34035;SDS011;63481;52.588;22.472;2022-12-18T02:18:27;58.17;;;24.70;;
34035;SDS011;63481;52.588;22.472;2022-12-18T02:19:25;51.30;;;22.77;;
34035;SDS011;63481;52.588;22.472;2022-12-18T02:20:38;57.48;;;23.95;;
34035;SDS011;63481;52.588;22.472;2022-12-18T02:24:02;49.18;;;22.40;;
34035;SDS011;63481;52.588;22.472;2022-12-18T02:27:18;54.93;;;23.45;;
34035;SDS011;63481;52.588;22.472;2022-12-18T02:28:09;47.53;;;22.45;;
34035;SDS011;63481;52.588;22.472;2022-12-18T02:29:04;52.73;;;24.10;;
34035;SDS011;63481;52.588;22.472;2022-12-18T02:30:56;47.30;;;20.17;;
34035;SDS011;63481;52.588;22.472;2022-12-18T02:31:51;53.35;;;23.35;;
34035;SDS011;63481;52.588;22.472;2022-12-18T02:32:46;48.45;;;22.70;;
34035;SDS011;63481;52.588;22.472;2022-12-18T02:33:38;51.42;;;25.77;;
34035;SDS011;63481;52.588;22.472;2022-12-18T02:34:32;47.15;;;21.52;;
34035;SDS011;63481;52.588;22.472;2022-12-18T02:35:27;47.00;;;22.05;;
34035;SDS011;63481;52.588;22.472;2022-12-18T02:36:20;43.65;;;19.75;;
34035;SDS011;63481;52.588;22.472;2022-12-18T02:37:14;45.12;;;21.05;;
34035;SDS011;63481;52.588;22.472;2022-12-18T02:38:07;45.15;;;21.95;;
34035;SDS011;63481;52.588;22.472;2022-12-18T02:38:58;42.13;;;19.80;;
34035;SDS011;63481;52.588;22.472;2022-12-18T02:39:49;43.87;;;21.33;;
34035;SDS011;63481;52.588;22.472;2022-12-18T02:40:43;41.92;;;19.98;;
34035;SDS011;63481;52.588;22.472;2022-12-18T02:41:36;47.85;;;21.37;;
34035;SDS011;63481;52.588;22.472;2022-12-18T02:42:28;43.17;;;19.30;;
34035;SDS011;63481;52.588;22.472;2022-12-18T02:43:21;39.60;;;19.23;;
34035;SDS011;63481;52.588;22.472;2022-12-18T02:45:03;39.63;;;19.32;;
34035;SDS011;63481;52.588;22.472;2022-12-18T02:45:56;39.60;;;18.02;;
34035;SDS011;63481;52.588;22.472;2022-12-18T02:46:52;42.78;;;19.92;;
34035;SDS011;63481;52.588;22.472;2022-12-18T02:47:43;45.12;;;20.43;;
34035;SDS011;63481;52.588;22.472;2022-12-18T02:48:36;45.40;;;21.73;;
34035;SDS011;63481;52.588;22.472;2022-12-18T02:50:29;42.95;;;20.52;;
34035;SDS011;63481;52.588;22.472;2022-12-18T02:51:29;43.48;;;22.85;;
34035;SDS011;63481;52.588;22.472;2022-12-18T02:52:29;45.23;;;19.92;;
34035;SDS011;63481;52.588;22.472;2022-12-18T02:53:46;44.98;;;21.75;;
34035;SDS011;63481;52.588;22.472;2022-12-18T02:56:54;40.15;;;18.87;;
34035;SDS011;63481;52.588;22.472;2022-12-18T02:58:58;43.35;;;19.62;;
34035;SDS011;63481;52.588;22.472;2022-12-18T03:00:01;41.80;;;18.85;;
34035;SDS011;63481;52.588;22.472;2022-12-18T03:00:58;40.12;;;17.92;;
34035;SDS011;63481;52.588;22.472;2022-12-18T03:03:09;47.58;;;22.67;;
34035;SDS011;63481;52.588;22.472;2022-12-18T03:04:19;41.85;;;21.17;;
34035;SDS011;63481;52.588;22.472;2022-12-18T03:06:17;39.00;;;18.82;;
34035;SDS011;63481;52.588;22.472;2022-12-18T03:07:06;39.15;;;17.45;;
34035;SDS011;63481;52.588;22.472;2022-12-18T03:08:58;41.77;;;20.17;;
34035;SDS011;63481;52.588;22.472;2022-12-18T03:09:50;35.45;;;18.27;;
34035;SDS011;63481;52.588;22.472;2022-12-18T03:10:51;39.67;;;19.15;;
34035;SDS011;63481;52.588;22.472;2022-12-18T03:11:41;42.10;;;20.32;;
34035;SDS011;63481;52.588;22.472;2022-12-18T03:13:04;37.45;;;18.02;;
34035;SDS011;63481;52.588;22.472;2022-12-18T03:13:57;43.95;;;19.37;;
34035;SDS011;63481;52.588;22.472;2022-12-18T03:14:54;40.15;;;19.35;;
34035;SDS011;63481;52.588;22.472;2022-12-18T03:15:47;37.05;;;18.75;;
34035;SDS011;63481;52.588;22.472;2022-12-18T03:16:37;41.45;;;18.87;;
34035;SDS011;63481;52.588;22.472;2022-12-18T03:17:31;43.25;;;19.45;;
34035;SDS011;63481;52.588;22.472;2022-12-18T03:18:24;44.13;;;20.40;;
34035;SDS011;63481;52.588;22.472;2022-12-18T03:19:18;46.40;;;22.22;;
34035;SDS011;63481;52.588;22.472;2022-12-18T03:20:12;43.30;;;20.30;;
34035;SDS011;63481;52.588;22.472;2022-12-18T03:21:06;44.05;;;20.20;;
34035;SDS011;63481;52.588;22.472;2022-12-18T03:22:00;40.83;;;17.70;;
34035;SDS011;63481;52.588;22.472;2022-12-18T03:22:56;37.65;;;17.17;;
34035;SDS011;63481;52.588;22.472;2022-12-18T03:23:49;36.53;;;17.77;;
34035;SDS011;63481;52.588;22.472;2022-12-18T03:24:40;44.10;;;20.37;;
34035;SDS011;63481;52.588;22.472;2022-12-18T03:25:34;38.88;;;17.10;;
34035;SDS011;63481;52.588;22.472;2022-12-18T03:26:27;37.35;;;17.05;;
34035;SDS011;63481;52.588;22.472;2022-12-18T03:27:21;37.53;;;18.40;;
34035;SDS011;63481;52.588;22.472;2022-12-18T03:28:14;37.00;;;18.23;;
34035;SDS011;63481;52.588;22.472;2022-12-18T03:29:08;37.30;;;18.37;;
34035;SDS011;63481;52.588;22.472;2022-12-18T03:30:07;39.05;;;17.50;;
34035;SDS011;63481;52.588;22.472;2022-12-18T03:30:58;35.17;;;16.90;;
34035;SDS011;63481;52.588;22.472;2022-12-18T03:31:55;36.83;;;17.98;;
34035;SDS011;63481;52.588;22.472;2022-12-18T03:32:53;39.50;;;19.70;;
34035;SDS011;63481;52.588;22.472;2022-12-18T03:33:52;33.15;;;14.43;;
34035;SDS011;63481;52.588;22.472;2022-12-18T03:34:47;35.88;;;17.90;;
34035;SDS011;63481;52.588;22.472;2022-12-18T03:35:41;37.85;;;17.82;;
34035;SDS011;63481;52.588;22.472;2022-12-18T03:36:33;34.55;;;15.60;;
34035;SDS011;63481;52.588;22.472;2022-12-18T03:37:24;35.17;;;16.27;;
34035;SDS011;63481;52.588;22.472;2022-12-18T03:38:15;39.05;;;18.80;;
34035;SDS011;63481;52.588;22.472;2022-12-18T03:39:08;36.20;;;15.85;;
34035;SDS011;63481;52.588;22.472;2022-12-18T03:39:59;35.30;;;16.20;;
34035;SDS011;63481;52.588;22.472;2022-12-18T03:43:07;32.45;;;13.70;;
34035;SDS011;63481;52.588;22.472;2022-12-18T03:44:13;33.45;;;15.70;;
34035;SDS011;63481;52.588;22.472;2022-12-18T03:45:09;34.85;;;15.38;;
34035;SDS011;63481;52.588;22.472;2022-12-18T03:46:02;33.70;;;14.55;;
34035;SDS011;63481;52.588;22.472;2022-12-18T03:47:03;34.45;;;16.25;;
34035;SDS011;63481;52.588;22.472;2022-12-18T03:47:59;33.33;;;15.03;;
34035;SDS011;63481;52.588;22.472;2022-12-18T03:48:49;32.53;;;15.03;;
34035;SDS011;63481;52.588;22.472;2022-12-18T03:50:57;30.32;;;14.53;;
34035;SDS011;63481;52.588;22.472;2022-12-18T03:52:12;33.95;;;15.32;;
34035;SDS011;63481;52.588;22.472;2022-12-18T03:54:24;29.37;;;13.60;;
34035;SDS011;63481;52.588;22.472;2022-12-18T03:55:18;35.92;;;15.78;;
34035;SDS011;63481;52.588;22.472;2022-12-18T03:56:11;31.45;;;14.78;;
34035;SDS011;63481;52.588;22.472;2022-12-18T03:57:07;34.70;;;14.80;;
34035;SDS011;63481;52.588;22.472;2022-12-18T03:58:03;36.08;;;15.60;;
34035;SDS011;63481;52.588;22.472;2022-12-18T03:59:05;29.92;;;12.90;;
34035;SDS011;63481;52.588;22.472;2022-12-18T04:00:03;36.25;;;15.25;;
34035;SDS011;63481;52.588;22.472;2022-12-18T04:01:04;32.88;;;13.68;;
34035;SDS011;63481;52.588;22.472;2022-12-18T04:02:00;33.78;;;14.87;;
34035;SDS011;63481;52.588;22.472;2022-12-18T04:02:54;30.40;;;14.65;;
34035;SDS011;63481;52.588;22.472;2022-12-18T04:03:48;32.75;;;14.40;;
34035;SDS011;63481;52.588;22.472;2022-12-18T04:04:41;30.50;;;14.13;;
34035;SDS011;63481;52.588;22.472;2022-12-18T04:05:34;33.83;;;14.53;;
34035;SDS011;63481;52.588;22.472;2022-12-18T04:06:27;32.42;;;15.15;;
34035;SDS011;63481;52.588;22.472;2022-12-18T04:07:19;27.48;;;13.70;;
34035;SDS011;63481;52.588;22.472;2022-12-18T04:08:11;31.95;;;13.75;;
34035;SDS011;63481;52.588;22.472;2022-12-18T04:09:04;31.20;;;14.55;;
34035;SDS011;63481;52.588;22.472;2022-12-18T04:09:57;32.55;;;15.70;;
34035;SDS011;63481;52.588;22.472;2022-12-18T04:10:52;30.50;;;12.88;;
34035;SDS011;63481;52.588;22.472;2022-12-18T04:11:43;32.35;;;14.70;;
34035;SDS011;63481;52.588;22.472;2022-12-18T04:12:34;30.23;;;14.05;;
34035;SDS011;63481;52.588;22.472;2022-12-18T04:13:32;37.15;;;15.98;;
34035;SDS011;63481;52.588;22.472;2022-12-18T04:14:24;31.25;;;13.10;;
34035;SDS011;63481;52.588;22.472;2022-12-18T04:15:16;32.17;;;14.73;;
34035;SDS011;63481;52.588;22.472;2022-12-18T04:16:07;31.00;;;14.58;;
34035;SDS011;63481;52.588;22.472;2022-12-18T04:17:01;31.87;;;13.72;;
34035;SDS011;63481;52.588;22.472;2022-12-18T04:17:53;30.20;;;14.30;;
34035;SDS011;63481;52.588;22.472;2022-12-18T04:18:45;31.20;;;12.80;;
34035;SDS011;63481;52.588;22.472;2022-12-18T04:19:36;30.40;;;14.25;;
34035;SDS011;63481;52.588;22.472;2022-12-18T04:20:28;30.27;;;14.38;;
34035;SDS011;63481;52.588;22.472;2022-12-18T04:22:09;29.35;;;12.63;;
34035;SDS011;63481;52.588;22.472;2022-12-18T04:23:02;28.67;;;12.37;;
34035;SDS011;63481;52.588;22.472;2022-12-18T04:23:53;29.57;;;13.28;;
34035;SDS011;63481;52.588;22.472;2022-12-18T04:24:44;33.38;;;13.40;;
34035;SDS011;63481;52.588;22.472;2022-12-18T04:25:37;25.60;;;11.97;;
34035;SDS011;63481;52.588;22.472;2022-12-18T04:26:34;26.87;;;12.53;;
34035;SDS011;63481;52.588;22.472;2022-12-18T04:27:35;28.12;;;12.37;;
34035;SDS011;63481;52.588;22.472;2022-12-18T04:28:27;30.62;;;15.70;;
34035;SDS011;63481;52.588;22.472;2022-12-18T04:29:17;29.05;;;12.33;;
34035;SDS011;63481;52.588;22.472;2022-12-18T04:30:58;28.55;;;10.82;;
34035;SDS011;63481;52.588;22.472;2022-12-18T04:31:49;27.25;;;11.50;;
34035;SDS011;63481;52.588;22.472;2022-12-18T04:32:40;29.18;;;11.10;;
34035;SDS011;63481;52.588;22.472;2022-12-18T04:33:31;30.65;;;14.18;;
34035;SDS011;63481;52.588;22.472;2022-12-18T04:34:22;28.87;;;11.50;;
34035;SDS011;63481;52.588;22.472;2022-12-18T04:35:14;25.20;;;12.15;;
34035;SDS011;63481;52.588;22.472;2022-12-18T04:36:05;28.38;;;13.00;;
34035;SDS011;63481;52.588;22.472;2022-12-18T04:36:56;29.18;;;12.65;;
34035;SDS011;63481;52.588;22.472;2022-12-18T04:37:48;30.60;;;13.98;;
34035;SDS011;63481;52.588;22.472;2022-12-18T04:38:38;25.80;;;12.15;;
34035;SDS011;63481;52.588;22.472;2022-12-18T04:39:30;25.72;;;13.03;;
34035;SDS011;63481;52.588;22.472;2022-12-18T04:40:26;28.10;;;13.28;;
34035;SDS011;63481;52.588;22.472;2022-12-18T04:41:16;26.15;;;11.73;;
34035;SDS011;63481;52.588;22.472;2022-12-18T04:42:09;28.83;;;13.08;;
34035;SDS011;63481;52.588;22.472;2022-12-18T04:43:52;25.10;;;12.30;;
34035;SDS011;63481;52.588;22.472;2022-12-18T04:44:42;26.95;;;12.95;;
34035;SDS011;63481;52.588;22.472;2022-12-18T04:45:33;23.42;;;11.03;;
34035;SDS011;63481;52.588;22.472;2022-12-18T04:46:24;27.20;;;11.40;;
34035;SDS011;63481;52.588;22.472;2022-12-18T04:47:15;24.32;;;12.18;;
34035;SDS011;63481;52.588;22.472;2022-12-18T04:48:06;26.00;;;11.93;;
34035;SDS011;63481;52.588;22.472;2022-12-18T04:48:57;27.65;;;13.65;;
34035;SDS011;63481;52.588;22.472;2022-12-18T04:50:37;24.63;;;10.23;;
34035;SDS011;63481;52.588;22.472;2022-12-18T04:51:28;24.50;;;11.25;;
34035;SDS011;63481;52.588;22.472;2022-12-18T04:52:19;25.62;;;12.47;;
34035;SDS011;63481;52.588;22.472;2022-12-18T04:53:09;26.37;;;13.48;;
34035;SDS011;63481;52.588;22.472;2022-12-18T04:54:00;25.95;;;12.93;;
34035;SDS011;63481;52.588;22.472;2022-12-18T04:54:51;21.73;;;10.35;;
34035;SDS011;63481;52.588;22.472;2022-12-18T04:55:42;25.95;;;11.75;;
34035;SDS011;63481;52.588;22.472;2022-12-18T04:57:22;23.57;;;10.85;;
34035;SDS011;63481;52.588;22.472;2022-12-18T04:58:13;24.67;;;11.57;;
34035;SDS011;63481;52.588;22.472;2022-12-18T04:59:54;22.30;;;10.82;;
34035;SDS011;63481;52.588;22.472;2022-12-18T05:01:35;22.62;;;10.70;;
34035;SDS011;63481;52.588;22.472;2022-12-18T05:02:27;25.50;;;10.63;;
34035;SDS011;63481;52.588;22.472;2022-12-18T05:03:20;23.25;;;11.70;;
34035;SDS011;63481;52.588;22.472;2022-12-18T05:04:13;22.40;;;11.08;;
34035;SDS011;63481;52.588;22.472;2022-12-18T05:05:54;23.00;;;10.65;;
34035;SDS011;63481;52.588;22.472;2022-12-18T05:06:44;26.07;;;11.73;;
34035;SDS011;63481;52.588;22.472;2022-12-18T05:07:35;25.05;;;10.95;;
34035;SDS011;63481;52.588;22.472;2022-12-18T05:08:26;23.87;;;12.58;;
34035;SDS011;63481;52.588;22.472;2022-12-18T05:09:17;24.65;;;11.03;;
34035;SDS011;63481;52.588;22.472;2022-12-18T05:10:08;28.42;;;13.78;;
34035;SDS011;63481;52.588;22.472;2022-12-18T05:11:02;23.45;;;11.55;;
34035;SDS011;63481;52.588;22.472;2022-12-18T05:11:55;23.87;;;10.40;;
34035;SDS011;63481;52.588;22.472;2022-12-18T05:12:45;23.87;;;10.63;;
34035;SDS011;63481;52.588;22.472;2022-12-18T05:13:48;24.80;;;11.63;;
34035;SDS011;63481;52.588;22.472;2022-12-18T05:14:40;27.93;;;12.03;;
34035;SDS011;63481;52.588;22.472;2022-12-18T05:15:31;26.97;;;11.65;;
34035;SDS011;63481;52.588;22.472;2022-12-18T05:16:22;27.70;;;11.12;;
34035;SDS011;63481;52.588;22.472;2022-12-18T05:17:14;22.87;;;10.58;;
34035;SDS011;63481;52.588;22.472;2022-12-18T05:18:07;25.97;;;11.25;;
34035;SDS011;63481;52.588;22.472;2022-12-18T05:18:58;25.52;;;11.57;;
34035;SDS011;63481;52.588;22.472;2022-12-18T05:19:49;25.27;;;11.40;;
34035;SDS011;63481;52.588;22.472;2022-12-18T05:22:20;21.33;;;9.43;;
34035;SDS011;63481;52.588;22.472;2022-12-18T05:23:11;21.85;;;10.48;;
34035;SDS011;63481;52.588;22.472;2022-12-18T05:24:02;26.12;;;10.70;;
34035;SDS011;63481;52.588;22.472;2022-12-18T05:24:54;25.00;;;11.20;;
34035;SDS011;63481;52.588;22.472;2022-12-18T05:25:55;22.75;;;11.08;;
34035;SDS011;63481;52.588;22.472;2022-12-18T05:26:47;24.98;;;11.05;;
34035;SDS011;63481;52.588;22.472;2022-12-18T05:27:37;23.42;;;10.35;;
34035;SDS011;63481;52.588;22.472;2022-12-18T05:28:29;23.77;;;10.58;;
34035;SDS011;63481;52.588;22.472;2022-12-18T05:29:22;24.87;;;11.63;;
34035;SDS011;63481;52.588;22.472;2022-12-18T05:30:12;24.60;;;12.35;;
34035;SDS011;63481;52.588;22.472;2022-12-18T05:31:04;23.42;;;10.28;;
34035;SDS011;63481;52.588;22.472;2022-12-18T05:31:57;23.73;;;11.48;;
34035;SDS011;63481;52.588;22.472;2022-12-18T05:32:47;21.90;;;11.00;;
34035;SDS011;63481;52.588;22.472;2022-12-18T05:33:37;24.55;;;10.85;;
34035;SDS011;63481;52.588;22.472;2022-12-18T05:34:28;21.85;;;10.60;;
34035;SDS011;63481;52.588;22.472;2022-12-18T05:35:19;25.68;;;11.30;;
34035;SDS011;63481;52.588;22.472;2022-12-18T05:36:10;24.37;;;11.95;;
34035;SDS011;63481;52.588;22.472;2022-12-18T05:37:01;24.27;;;11.88;;
34035;SDS011;63481;52.588;22.472;2022-12-18T05:37:52;24.55;;;11.85;;
34035;SDS011;63481;52.588;22.472;2022-12-18T05:38:43;23.92;;;12.03;;
34035;SDS011;63481;52.588;22.472;2022-12-18T05:39:33;27.27;;;11.97;;
34035;SDS011;63481;52.588;22.472;2022-12-18T05:40:24;27.10;;;11.63;;
34035;SDS011;63481;52.588;22.472;2022-12-18T05:41:15;25.48;;;11.08;;
34035;SDS011;63481;52.588;22.472;2022-12-18T05:42:05;25.10;;;12.00;;
34035;SDS011;63481;52.588;22.472;2022-12-18T05:42:56;25.90;;;12.65;;
34035;SDS011;63481;52.588;22.472;2022-12-18T05:43:47;26.25;;;12.20;;
34035;SDS011;63481;52.588;22.472;2022-12-18T05:44:38;24.05;;;11.25;;
34035;SDS011;63481;52.588;22.472;2022-12-18T05:45:29;22.45;;;11.55;;
34035;SDS011;63481;52.588;22.472;2022-12-18T05:46:19;25.20;;;12.03;;
34035;SDS011;63481;52.588;22.472;2022-12-18T05:47:10;23.00;;;11.05;;
34035;SDS011;63481;52.588;22.472;2022-12-18T05:48:00;24.25;;;11.33;;
34035;SDS011;63481;52.588;22.472;2022-12-18T05:48:51;23.45;;;10.88;;
34035;SDS011;63481;52.588;22.472;2022-12-18T05:50:35;23.95;;;10.48;;
34035;SDS011;63481;52.588;22.472;2022-12-18T05:51:27;20.97;;;10.58;;
34035;SDS011;63481;52.588;22.472;2022-12-18T05:52:18;27.07;;;12.35;;
34035;SDS011;63481;52.588;22.472;2022-12-18T05:53:09;24.35;;;10.85;;
34035;SDS011;63481;52.588;22.472;2022-12-18T05:54:00;23.18;;;10.55;;
34035;SDS011;63481;52.588;22.472;2022-12-18T05:54:50;28.27;;;12.70;;
34035;SDS011;63481;52.588;22.472;2022-12-18T05:56:31;26.82;;;11.33;;